Blacklick, Ohio
Current Conditions -  °F | °C
As of 10:51 PM on Wednesday 26 Nov 2014 (Local Time) from KCMH Reporting Station
Overcast Overcast  
Wind Chill: 26°   Ceiling: 3400
Heat Index: 33°   Visibility: 8mi
Dew Point: 27°   Wind: 8mph
Humidity: 78%   Direction: 340°NNW
Pressure: 30.03"   Gusts: NA
Location:  40°N, 82.81°W
Report Text: KCMH 270351Z 34007KT 8SM OVC034 01/M03 A3003 RMK AO2 SLP178 T00061028
Loading
Personal Weather Stations






























Interactive Weather Map New forecast layout! Learn more

10-Day Weather Forecast

Advertisements
Track Severe Weather on mobile